Time;durP1;ratioP1;P1;durP2;ratioP2;P2;SDS_P1;SDS_P2;PMS_P1;PMS_P2;Temp;Humidity;BMP_temperature;BMP_pressure;BME280_temperature;BME280_humidity;BME280_pressure;Samples;Min_cycle;Max_cycle;Signal;HPM_P1;HPM_P2
2022/01/20 00:03:22;;;;;;;2.10;1.35;;;;;;;21.62;29.38;100211.75;5068039;28;20700;-60
2022/01/20 00:27:28;;;;;;;1.55;1.08;;;;;;;21.76;28.63;100225.22;5109656;28;20526;-59
2022/01/20 00:32:25;;;;;;;1.58;1.00;;;;;;;21.84;28.76;100215.84;5109399;28;20039;-59
2022/01/20 00:35:11;;;;;;;1.75;1.00;;;;;;;21.88;28.31;100209.19;5109434;28;20067;-59
2022/01/20 00:37:37;;;;;;;1.52;1.10;;;;;;;21.94;28.32;100207.75;5109269;28;20035;-59
2022/01/20 00:40:03;;;;;;;1.73;1.00;;;;;;;21.94;28.47;100212.50;5109572;28;20088;-59
2022/01/20 00:42:28;;;;;;;1.60;1.00;;;;;;;21.91;28.42;100210.44;5109426;28;20039;-59
2022/01/20 00:44:54;;;;;;;1.40;0.90;;;;;;;21.89;28.38;100210.81;5109304;28;20048;-59
2022/01/20 00:47:20;;;;;;;1.55;0.95;;;;;;;21.86;28.69;100205.13;5109201;28;20051;-59
2022/01/20 00:49:46;;;;;;;1.45;0.95;;;;;;;21.78;28.35;100204.16;5109243;28;20055;-59
2022/01/20 00:52:12;;;;;;;1.77;1.00;;;;;;;21.78;28.35;100211.72;5108503;28;20044;-60
2022/01/20 00:54:38;;;;;;;1.48;0.90;;;;;;;21.75;28.15;100199.34;5108619;28;20051;-59
2022/01/20 00:57:05;;;;;;;1.40;0.98;;;;;;;21.70;28.54;100203.19;5109056;28;20105;-59
2022/01/20 00:59:31;;;;;;;1.92;1.10;;;;;;;21.69;28.28;100206.34;5109189;28;20044;-59
2022/01/20 01:01:58;;;;;;;1.63;1.02;;;;;;;21.66;28.57;100207.09;5108864;28;20047;-60
2022/01/20 01:04:25;;;;;;;1.92;1.17;;;;;;;21.64;28.34;100201.84;5108907;28;20086;-60
2022/01/20 01:09:23;;;;;;;1.52;1.00;;;;;;;21.60;28.60;100211.31;5109011;28;20081;-59
2022/01/20 01:11:50;;;;;;;1.95;1.20;;;;;;;21.58;28.64;100214.47;5108948;28;20043;-58
2022/01/20 01:14:18;;;;;;;2.05;1.20;;;;;;;21.55;28.81;100212.38;5109013;28;20043;-59
2022/01/20 01:22:21;;;;;;;1.80;1.17;;;;;;;21.50;28.67;100209.06;5108910;28;20568;-60
2022/01/20 01:24:53;;;;;;;2.35;1.45;;;;;;;21.57;28.88;100209.22;5105966;28;20047;-60
2022/01/20 01:27:20;;;;;;;2.47;1.50;;;;;;;21.75;28.65;100198.53;5108740;28;20537;-60
2022/01/20 01:30:09;;;;;;;2.22;1.42;;;;;;;21.83;28.35;100205.88;5109057;28;20054;-60
2022/01/20 01:35:09;;;;;;;2.58;1.50;;;;;;;21.99;28.27;100213.00;5109107;28;20047;-60
2022/01/20 01:38:24;;;;;;;2.58;1.50;;;;;;;22.06;27.93;100209.59;5108862;28;20113;-59
2022/01/20 01:40:20;;;;;;;2.42;1.42;;;;;;;22.08;28.25;100209.25;5108694;28;20051;-60
2022/01/20 01:42:49;;;;;;;1.80;1.20;;;;;;;22.04;28.17;100216.69;5109028;28;20044;-59
2022/01/20 01:45:24;;;;;;;2.08;1.20;;;;;;;21.98;28.14;100224.53;5109009;28;20067;-59
2022/01/20 01:47:49;;;;;;;2.33;1.55;;;;;;;21.98;28.26;100218.97;5108907;28;20062;-59
2022/01/20 01:50:15;;;;;;;2.13;1.40;;;;;;;22.02;28.01;100217.06;5108540;28;20047;-59
2022/01/20 01:52:40;;;;;;;1.95;1.20;;;;;;;21.99;27.97;100213.00;5108438;28;20103;-59
2022/01/20 01:55:07;;;;;;;2.65;1.60;;;;;;;21.96;28.30;100210.97;5108224;28;20047;-59
2022/01/20 01:57:32;;;;;;;2.30;1.40;;;;;;;21.96;28.22;100212.94;5108264;28;20044;-59
2022/01/20 01:59:58;;;;;;;2.38;1.45;;;;;;;21.94;28.16;100212.50;5108315;28;20377;-60
2022/01/20 02:02:23;;;;;;;1.92;1.30;;;;;;;21.89;28.34;100196.88;5108229;28;20050;-60
2022/01/20 02:04:50;;;;;;;1.95;1.27;;;;;;;21.85;28.33;100201.53;5110212;28;20044;-59
2022/01/20 02:18:43;;;;;;;2.75;1.70;;;;;;;21.65;28.17;100194.34;5111856;28;20053;-60
2022/01/20 02:21:08;;;;;;;1.95;1.20;;;;;;;21.60;28.13;100184.28;5111707;28;20579;-59
2022/01/20 02:23:34;;;;;;;2.35;1.33;;;;;;;21.59;28.07;100198.56;5111474;28;20040;-59
2022/01/20 02:26:00;;;;;;;2.20;1.50;;;;;;;21.56;28.04;100186.16;5111533;28;20052;-60
2022/01/20 02:28:27;;;;;;;2.05;1.40;;;;;;;21.54;28.30;100179.34;5111470;28;20085;-59
2022/01/20 02:30:53;;;;;;;2.50;1.60;;;;;;;21.52;28.08;100181.69;5111446;28;20051;-60
2022/01/20 02:33:21;;;;;;;2.60;1.60;;;;;;;21.49;28.28;100179.59;5111364;28;20052;-60
2022/01/20 02:35:53;;;;;;;2.30;1.50;;;;;;;21.47;27.91;100176.38;5111497;28;20124;-60
2022/01/20 02:46:04;;;;;;;2.78;1.88;;;;;;;21.71;27.32;100171.41;5111291;28;20526;-60
2022/01/20 02:48:30;;;;;;;2.40;1.52;;;;;;;21.83;27.45;100162.13;5110969;28;20044;-60
2022/01/20 02:50:57;;;;;;;2.50;1.70;;;;;;;21.85;27.58;100170.91;5111252;28;20066;-60
2022/01/20 02:53:22;;;;;;;2.10;1.50;;;;;;;21.86;27.41;100172.56;5111419;28;20518;-60
2022/01/20 02:55:47;;;;;;;2.85;1.80;;;;;;;21.88;27.54;100170.19;5111015;28;20048;-60
2022/01/20 02:58:13;;;;;;;2.30;1.35;;;;;;;21.91;27.44;100177.81;5111115;28;20044;-60
2022/01/20 03:00:38;;;;;;;2.35;1.50;;;;;;;21.95;27.25;100184.28;5110835;28;20055;-60
2022/01/20 03:03:04;;;;;;;2.25;1.48;;;;;;;21.98;27.38;100166.84;5110706;28;20086;-60
2022/01/20 03:05:33;;;;;;;2.28;1.58;;;;;;;21.99;27.17;100171.22;5091433;28;20068;-60
2022/01/20 03:08:00;;;;;;;1.63;1.13;;;;;;;21.99;27.27;100170.44;5110597;28;20051;-60
2022/01/20 03:10:27;;;;;;;2.05;1.40;;;;;;;21.95;27.39;100175.13;5092708;28;20476;-60
2022/01/20 03:12:52;;;;;;;2.00;1.40;;;;;;;21.92;27.14;100168.28;5110711;28;20040;-60
2022/01/20 03:15:18;;;;;;;2.13;1.42;;;;;;;21.89;27.40;100155.09;5110016;28;20422;-61
2022/01/20 03:17:43;;;;;;;1.90;1.20;;;;;;;21.84;27.43;100154.56;5110519;28;20486;-60
2022/01/20 03:20:09;;;;;;;2.13;1.50;;;;;;;21.82;27.63;100156.91;5110632;28;20035;-60
2022/01/20 03:22:35;;;;;;;2.30;1.50;;;;;;;21.77;27.29;100171.94;5106870;28;20047;-60
2022/01/20 03:25:01;;;;;;;2.28;1.40;;;;;;;21.74;27.64;100161.53;5089369;28;20514;-60
2022/01/20 03:27:26;;;;;;;2.45;1.67;;;;;;;21.71;27.67;100165.03;5090198;28;20048;-60
2022/01/20 03:29:52;;;;;;;2.17;1.33;;;;;;;21.67;27.37;100158.59;5090224;28;20048;-60
2022/01/20 03:32:17;;;;;;;2.33;1.52;;;;;;;21.65;27.47;100166.50;5090260;28;20101;-60
2022/01/20 03:34:43;;;;;;;2.40;1.55;;;;;;;21.63;27.61;100157.69;5090075;28;20370;-60
2022/01/20 03:37:08;;;;;;;2.05;1.38;;;;;;;21.60;27.58;100167.56;5089946;28;20457;-60
2022/01/20 03:39:34;;;;;;;2.22;1.60;;;;;;;21.57;27.69;100157.13;5090077;28;20060;-60
2022/01/20 03:41:59;;;;;;;2.28;1.45;;;;;;;21.56;27.62;100163.88;5090028;28;20500;-61
2022/01/20 03:44:25;;;;;;;2.17;1.35;;;;;;;21.52;27.42;100151.88;5089574;28;20741;-61
2022/01/20 03:46:50;;;;;;;2.10;1.38;;;;;;;21.51;27.55;100149.47;5089843;28;20119;-58
2022/01/20 03:49:37;;;;;;;2.42;1.60;;;;;;;21.48;27.51;100150.16;5090359;28;20070;-59
2022/01/20 03:52:04;;;;;;;2.20;1.42;;;;;;;21.48;27.46;100152.94;5090301;28;20036;-60
2022/01/20 03:54:30;;;;;;;1.95;1.33;;;;;;;21.45;27.42;100151.72;5090187;28;20058;-59
2022/01/20 03:56:55;;;;;;;2.03;1.33;;;;;;;21.43;27.34;100149.28;5089846;28;20040;-59
2022/01/20 03:59:21;;;;;;;2.50;1.70;;;;;;;21.41;27.55;100142.44;5089217;28;20393;-59
2022/01/20 04:01:46;;;;;;;2.60;1.63;;;;;;;21.41;27.56;100150.81;5089303;28;20047;-59
2022/01/20 04:04:12;;;;;;;2.45;1.50;;;;;;;21.38;27.36;100146.78;5089278;28;20512;-59
2022/01/20 04:06:37;;;;;;;2.05;1.42;;;;;;;21.36;27.49;100146.34;5089398;28;20063;-59
2022/01/20 04:09:04;;;;;;;2.40;1.27;;;;;;;21.36;27.36;100151.91;5089408;28;20457;-59
2022/01/20 04:11:30;;;;;;;1.90;1.20;;;;;;;21.34;27.70;100157.00;5089360;28;20464;-59
2022/01/20 04:13:56;;;;;;;2.40;1.45;;;;;;;21.34;27.62;100151.44;5089348;28;20043;-59
2022/01/20 04:16:37;;;;;;;1.90;1.30;;;;;;;21.32;27.56;100153.78;5089374;28;20448;-60
2022/01/20 04:19:10;;;;;;;2.15;1.40;;;;;;;21.31;27.43;100156.94;5089294;28;20058;-60
2022/01/20 04:21:37;;;;;;;2.03;1.30;;;;;;;21.30;27.36;100172.81;5089363;28;20047;-60
2022/01/20 04:24:04;;;;;;;1.85;1.13;;;;;;;21.29;27.32;100173.16;5089038;28;20065;-60
2022/01/20 04:26:30;;;;;;;1.70;1.10;;;;;;;21.28;27.37;100163.19;5089048;28;20125;-60
2022/01/20 04:28:57;;;;;;;1.60;1.10;;;;;;;21.28;27.69;100183.47;5088981;28;20067;-59
2022/01/20 04:31:24;;;;;;;2.10;1.30;;;;;;;21.26;27.60;100169.09;5089049;28;20036;-60
2022/01/20 04:33:50;;;;;;;1.80;1.20;;;;;;;21.25;27.50;100163.91;5088876;28;20044;-60
2022/01/20 04:36:16;;;;;;;1.90;1.20;;;;;;;21.24;27.64;100173.41;5088918;28;20045;-59
2022/01/20 04:38:41;;;;;;;1.73;1.10;;;;;;;21.22;27.50;100175.72;5088983;28;20044;-59
2022/01/20 04:41:07;;;;;;;2.53;1.40;;;;;;;21.23;27.67;100177.38;5088926;28;20040;-60
2022/01/20 04:43:32;;;;;;;2.10;1.38;;;;;;;21.23;27.70;100185.72;5088807;28;20101;-59
2022/01/20 04:46:12;;;;;;;1.77;1.13;;;;;;;21.21;27.54;100188.81;5088916;28;20497;-59
2022/01/20 04:48:59;;;;;;;1.92;1.30;;;;;;;21.21;27.69;100197.19;5089031;28;20052;-60
2022/01/20 04:59:38;;;;;;;1.92;1.27;;;;;;;21.14;27.72;100192.22;5088987;28;20047;-59
2022/01/20 05:02:04;;;;;;;1.80;1.20;;;;;;;21.14;27.79;100183.09;5088674;28;20040;-59
2022/01/20 05:04:29;;;;;;;2.08;1.17;;;;;;;21.16;27.82;100191.91;5088564;28;20036;-59
2022/01/20 05:06:57;;;;;;;1.67;1.17;;;;;;;21.14;27.76;100191.44;5088518;28;20130;-60
2022/01/20 05:09:23;;;;;;;2.00;1.23;;;;;;;21.14;27.64;100185.88;5088331;28;20123;-60
2022/01/20 05:11:58;;;;;;;2.10;1.20;;;;;;;21.13;27.59;100195.38;5088528;28;20048;-60
2022/01/20 05:14:24;;;;;;;2.10;1.23;;;;;;;21.11;27.48;100192.97;5088443;28;20088;-60
2022/01/20 05:16:53;;;;;;;1.75;1.20;;;;;;;21.09;27.79;100195.31;5088453;28;20119;-60
2022/01/20 05:19:19;;;;;;;1.95;1.10;;;;;;;21.10;27.62;100198.88;5088379;28;20050;-60
2022/01/20 05:21:44;;;;;;;1.88;1.30;;;;;;;21.11;27.91;100200.50;5088430;28;20040;-60
2022/01/20 05:24:10;;;;;;;1.70;1.10;;;;;;;21.10;27.82;100198.88;5088080;28;20530;-60
2022/01/20 05:26:35;;;;;;;1.90;1.00;;;;;;;21.08;27.86;100198.44;5088022;28;20508;-60
2022/01/20 05:29:00;;;;;;;1.98;1.25;;;;;;;21.22;27.46;100196.03;5088244;28;20040;-60
2022/01/20 05:31:26;;;;;;;2.33;1.40;;;;;;;21.30;27.47;100197.84;5083943;28;20471;-60
2022/01/20 05:33:51;;;;;;;2.00;1.10;;;;;;;21.28;27.47;100197.38;5088369;28;20075;-61
2022/01/20 05:36:17;;;;;;;1.70;1.00;;;;;;;21.30;27.24;100199.84;5109203;28;20072;-59
2022/01/20 05:38:42;;;;;;;1.95;1.08;;;;;;;21.29;27.44;100201.81;5109425;28;20415;-60
2022/01/20 05:41:07;;;;;;;2.47;1.25;;;;;;;21.34;27.33;100195.97;5112484;28;20071;-60
2022/01/20 05:43:33;;;;;;;1.83;1.10;;;;;;;21.36;27.27;100204.78;5112107;28;20118;-60
2022/01/20 05:45:58;;;;;;;1.92;1.25;;;;;;;21.37;27.09;100200.81;5111914;28;20052;-60
2022/01/20 05:48:35;;;;;;;1.33;0.90;;;;;;;21.41;27.22;100206.47;5111651;28;20055;-59
2022/01/20 05:51:01;;;;;;;1.33;1.00;;;;;;;21.46;27.36;100197.03;5112410;28;20461;-59
2022/01/20 05:53:27;;;;;;;1.50;1.00;;;;;;;21.48;27.52;100200.25;5112394;28;20052;-60
2022/01/20 05:55:52;;;;;;;1.88;1.02;;;;;;;21.51;27.14;100196.78;5111288;28;20093;-59
2022/01/20 05:58:19;;;;;;;1.90;1.08;;;;;;;21.54;27.22;100196.03;5112371;28;20040;-60
2022/01/20 06:00:45;;;;;;;1.73;1.00;;;;;;;21.58;27.33;100194.97;5111675;28;20044;-60
2022/01/20 06:05:55;;;;;;;1.70;1.05;;;;;;;21.71;27.36;100204.00;5111988;28;20112;-60
2022/01/20 06:08:20;;;;;;;1.92;0.93;;;;;;;21.76;27.09;100208.50;5111900;28;20043;-60
2022/01/20 06:10:46;;;;;;;1.48;0.90;;;;;;;21.79;27.47;100208.59;5112015;28;20039;-60
2022/01/20 06:13:11;;;;;;;1.80;1.00;;;;;;;21.82;27.23;100216.22;5111810;28;20036;-60
2022/01/20 06:15:37;;;;;;;1.80;1.13;;;;;;;21.89;27.05;100219.16;5112077;28;20062;-60
2022/01/20 06:18:03;;;;;;;1.45;1.00;;;;;;;21.95;27.34;100219.69;5112079;28;20130;-60
2022/01/20 06:20:29;;;;;;;1.77;1.10;;;;;;;21.94;27.05;100224.47;5111900;28;20047;-60
2022/01/20 06:22:54;;;;;;;1.42;0.93;;;;;;;21.92;26.88;100226.78;5112033;28;20551;-60
2022/01/20 06:25:20;;;;;;;1.73;1.10;;;;;;;21.90;27.07;100226.34;5111574;28;20046;-60
2022/01/20 06:27:45;;;;;;;1.75;1.23;;;;;;;21.88;27.17;100217.56;5111726;28;20162;-60
2022/01/20 06:30:11;;;;;;;1.95;1.00;;;;;;;21.85;27.01;100218.25;5111219;28;20081;-61
2022/01/20 06:32:37;;;;;;;2.03;1.00;;;;;;;21.82;27.07;100216.22;5111401;28;20081;-61
2022/01/20 06:35:03;;;;;;;1.80;0.90;;;;;;;21.79;27.22;100214.16;5111351;28;20032;-61
2022/01/20 06:37:28;;;;;;;1.98;1.10;;;;;;;21.76;27.19;100212.09;5110985;28;20044;-61
2022/01/20 06:39:54;;;;;;;3.58;1.10;;;;;;;21.73;27.25;100209.22;5110929;28;20036;-61
2022/01/20 06:42:19;;;;;;;1.70;0.93;;;;;;;21.70;27.18;100207.97;5111028;28;20074;-61
2022/01/20 06:44:45;;;;;;;2.03;1.20;;;;;;;21.67;27.29;100209.50;5111134;28;20052;-61
2022/01/20 06:47:10;;;;;;;1.55;1.00;;;;;;;21.66;27.04;100209.88;5110486;28;20039;-62
2022/01/20 06:49:36;;;;;;;1.23;0.82;;;;;;;21.64;27.15;100209.41;5110842;28;20052;-61
2022/01/20 06:52:03;;;;;;;1.77;1.10;;;;;;;21.61;26.98;100194.22;5110835;28;20054;-61
2022/01/20 06:54:28;;;;;;;1.42;0.90;;;;;;;21.60;27.04;100208.53;5111093;28;20112;-61
2022/01/20 06:56:53;;;;;;;1.52;0.88;;;;;;;21.58;27.01;100199.72;5110818;28;20425;-61
2022/01/20 06:59:19;;;;;;;1.35;0.90;;;;;;;21.56;27.27;100200.06;5110985;28;20388;-61
2022/01/20 07:01:47;;;;;;;1.45;1.00;;;;;;;21.55;26.94;100197.66;5108508;28;20521;-60
2022/01/20 07:04:13;;;;;;;1.77;1.00;;;;;;;21.54;27.03;100209.97;5110383;28;20039;-60
2022/01/20 07:06:40;;;;;;;1.63;1.00;;;;;;;21.52;27.33;100201.97;5110665;28;20043;-60
2022/01/20 07:09:10;;;;;;;1.85;1.10;;;;;;;21.51;26.99;100199.56;5109301;28;20126;-60
2022/01/20 07:11:39;;;;;;;1.83;1.10;;;;;;;21.60;26.94;100206.53;5110608;28;20044;-60
2022/01/20 07:14:05;;;;;;;1.63;0.90;;;;;;;21.63;26.74;100199.44;5109879;28;20233;-60
2022/01/20 07:16:31;;;;;;;1.67;0.95;;;;;;;21.63;26.76;100196.66;5110568;28;20104;-60
2022/01/20 07:18:57;;;;;;;2.33;1.20;;;;;;;21.61;26.78;100194.22;5110941;28;20040;-60
2022/01/20 07:21:23;;;;;;;1.73;1.15;;;;;;;21.66;26.84;100190.38;5109387;28;20063;-60
2022/01/20 07:23:50;;;;;;;1.40;0.98;;;;;;;21.69;26.70;100196.00;5110393;28;20050;-60
2022/01/20 07:26:15;;;;;;;1.45;1.05;;;;;;;21.71;26.68;100199.25;5110380;28;20075;-60
2022/01/20 07:28:41;;;;;;;1.48;0.82;;;;;;;21.74;26.51;100197.72;5110037;28;20082;-60
2022/01/20 07:31:07;;;;;;;1.80;1.10;;;;;;;21.79;26.83;100191.06;5110345;28;20047;-60
2022/01/20 07:33:33;;;;;;;1.55;0.98;;;;;;;21.82;26.66;100195.91;5110227;28;20036;-60
2022/01/20 07:35:58;;;;;;;1.40;0.90;;;;;;;21.83;26.74;100203.09;5110122;28;20096;-60
2022/01/20 07:38:25;;;;;;;1.10;0.70;;;;;;;21.80;26.57;100207.41;5110266;28;20052;-60
2022/01/20 07:40:51;;;;;;;1.35;0.90;;;;;;;21.78;26.68;100211.72;5110230;28;20035;-60
2022/01/20 07:43:17;;;;;;;1.67;0.90;;;;;;;21.77;26.61;100219.25;5110214;28;20047;-60
2022/01/20 07:45:43;;;;;;;1.48;0.80;;;;;;;21.76;26.59;100214.06;5108820;28;20047;-60
2022/01/20 07:48:09;;;;;;;1.50;0.90;;;;;;;21.72;26.95;100208.44;5110147;28;20054;-60
2022/01/20 07:50:45;;;;;;;1.60;0.98;;;;;;;21.68;26.90;100205.53;5109894;28;20028;-60
2022/01/20 07:53:10;;;;;;;2.03;1.08;;;;;;;21.63;26.86;100196.66;5098619;28;20086;-60
2022/01/20 07:55:36;;;;;;;1.13;0.80;;;;;;;21.58;26.59;100199.72;5108000;28;20035;-59
2022/01/20 07:58:01;;;;;;;1.38;0.90;;;;;;;21.53;26.83;100208.34;5109608;28;20062;-59
2022/01/20 08:00:27;;;;;;;1.40;0.95;;;;;;;21.51;27.06;100200.38;5108925;28;20066;-60
2022/01/20 08:02:52;;;;;;;1.90;1.20;;;;;;;21.46;27.06;100189.50;5093293;28;20411;-60
2022/01/20 08:05:18;;;;;;;2.30;1.10;;;;;;;21.40;27.03;100190.94;5102311;28;20040;-60
2022/01/20 08:07:43;;;;;;;1.80;0.90;;;;;;;21.38;27.28;100196.88;5100356;28;20039;-60
2022/01/20 08:10:11;;;;;;;2.25;1.15;;;;;;;21.35;27.11;100185.63;5109530;28;20071;-59
2022/01/20 08:12:37;;;;;;;2.08;1.13;;;;;;;21.31;27.50;100181.97;5105277;28;20081;-61
2022/01/20 08:15:04;;;;;;;2.03;1.15;;;;;;;21.30;27.53;100183.13;5104501;28;20487;-61
2022/01/20 08:17:29;;;;;;;1.52;0.98;;;;;;;21.27;27.36;100179.06;5106700;28;20138;-60
2022/01/20 08:19:54;;;;;;;1.60;1.08;;;;;;;21.27;27.61;100183.81;5108704;28;20135;-60
2022/01/20 08:22:20;;;;;;;2.28;1.25;;;;;;;21.33;27.66;100183.22;5109457;28;20419;-60
2022/01/20 08:24:51;;;;;;;1.77;1.20;;;;;;;21.31;27.38;100196.69;5108290;28;20123;-61
2022/01/20 08:27:18;;;;;;;1.88;1.10;;;;;;;21.31;27.61;100195.88;5106040;28;20076;-59
2022/01/20 08:29:44;;;;;;;1.95;1.20;;;;;;;21.33;27.49;100188.78;5092697;28;20063;-60
2022/01/20 08:32:09;;;;;;;3.30;1.30;;;;;;;21.33;27.37;100186.00;5105061;28;20047;-60
2022/01/20 08:34:35;;;;;;;2.00;1.20;;;;;;;21.33;27.36;100185.19;5107878;28;20043;-60
2022/01/20 08:37:00;;;;;;;2.08;1.40;;;;;;;21.33;27.50;100182.41;5109863;28;20048;-59
2022/01/20 08:42:03;;;;;;;2.75;1.20;;;;;;;21.32;27.39;100178.81;5100012;28;20060;-62
2022/01/20 08:44:28;;;;;;;2.38;1.50;;;;;;;21.34;27.46;100178.47;5108571;28;20047;-62
2022/01/20 08:46:57;;;;;;;2.50;1.48;;;;;;;21.34;27.51;100184.81;5104187;28;20114;-62
2022/01/20 08:49:22;;;;;;;2.17;1.30;;;;;;;21.35;27.22;100180.06;5088622;28;20056;-62
2022/01/20 08:51:48;;;;;;;3.40;1.50;;;;;;;21.36;27.30;100181.69;5096964;28;20449;-62
2022/01/20 08:54:14;;;;;;;3.97;1.52;;;;;;;21.37;27.45;100183.31;5092764;28;20044;-61
2022/01/20 08:56:40;;;;;;;2.90;1.50;;;;;;;21.38;27.54;100185.72;5107865;28;20061;-61
2022/01/20 08:59:06;;;;;;;2.22;1.42;;;;;;;21.41;27.26;100179.44;5102832;28;20051;-61
2022/01/20 09:01:37;;;;;;;2.60;1.55;;;;;;;21.43;27.46;100188.25;5097601;28;20527;-59
2022/01/20 09:04:03;;;;;;;5.32;1.55;;;;;;;21.46;27.56;100188.69;5087997;28;20047;-59
2022/01/20 09:06:29;;;;;;;2.50;1.70;;;;;;;21.45;27.44;100192.66;5088988;28;20048;-60
2022/01/20 09:08:54;;;;;;;3.15;1.50;;;;;;;21.44;27.60;100197.41;5102736;28;20046;-59
2022/01/20 09:11:24;;;;;;;4.03;1.65;;;;;;;21.45;27.50;100201.00;5088247;28;20090;-60
2022/01/20 09:16:35;;;;;;;3.15;1.90;;;;;;;21.45;27.50;100195.44;5108742;28;20140;-60
2022/01/20 09:19:01;;;;;;;2.83;1.67;;;;;;;21.43;27.47;100201.34;5107343;28;20086;-60
2022/01/20 09:21:28;;;;;;;2.85;1.52;;;;;;;21.46;27.34;100199.81;5096105;28;20039;-60
2022/01/20 09:23:54;;;;;;;3.45;1.65;;;;;;;21.47;27.34;100201.44;5100684;28;20555;-60
2022/01/20 09:26:20;;;;;;;4.20;1.80;;;;;;;21.48;27.19;100203.03;5098755;28;20178;-60
2022/01/20 09:28:45;;;;;;;3.28;1.63;;;;;;;21.49;27.31;100202.69;5100244;28;20131;-59
2022/01/20 09:31:11;;;;;;;2.45;1.70;;;;;;;21.47;27.34;100198.66;5092222;28;20044;-64
2022/01/20 09:33:37;;;;;;;2.63;1.67;;;;;;;21.48;27.41;100197.47;5093407;28;20048;-61
2022/01/20 09:36:08;;;;;;;3.78;1.70;;;;;;;21.50;27.38;100200.69;5092744;28;20108;-61
2022/01/20 09:38:34;;;;;;;2.53;1.60;;;;;;;21.51;27.31;100199.56;5089217;28;20040;-61
2022/01/20 09:41:01;;;;;;;3.53;2.05;;;;;;;21.52;27.45;100201.16;5094532;28;20077;-60
2022/01/20 09:43:26;;;;;;;3.08;1.50;;;;;;;21.53;27.37;100186.09;5093827;28;20036;-61
2022/01/20 09:45:55;;;;;;;2.55;1.40;;;;;;;21.53;27.41;100170.19;5091951;28;20046;-60
2022/01/20 09:48:21;;;;;;;3.50;1.70;;;;;;;21.53;27.40;100172.16;5091578;28;20135;-60
2022/01/20 09:50:48;;;;;;;3.22;1.60;;;;;;;21.54;27.71;100171.00;5089442;28;20094;-59
2022/01/20 09:53:13;;;;;;;2.90;1.55;;;;;;;21.54;27.76;100171.00;5078964;28;20043;-60
2022/01/20 09:55:39;;;;;;;3.25;1.70;;;;;;;21.55;27.40;100161.47;5096506;28;20063;-59
2022/01/20 09:58:05;;;;;;;2.38;1.67;;;;;;;21.56;27.62;100171.44;5097354;28;20063;-59
2022/01/20 10:00:32;;;;;;;3.05;1.73;;;;;;;21.56;27.77;100168.66;5089625;28;20078;-59
2022/01/20 10:03:01;;;;;;;2.50;1.45;;;;;;;21.56;27.52;100177.00;5089369;28;20373;-59
2022/01/20 10:05:35;;;;;;;3.13;1.83;;;;;;;21.57;27.64;100178.59;5087875;28;20083;-59
2022/01/20 10:08:05;;;;;;;2.35;1.50;;;;;;;21.57;27.62;100173.84;5088952;28;20043;-61
2022/01/20 10:11:01;;;;;;;2.85;1.67;;;;;;;21.54;27.40;100171.78;5089416;28;20055;-61
2022/01/20 10:13:31;;;;;;;4.30;1.30;;;;;;;21.58;27.36;100183.03;5083685;28;20515;-61
2022/01/20 10:16:09;;;;;;;2.25;1.45;;;;;;;21.57;27.36;100184.97;5089265;28;20121;-61
2022/01/20 10:19:00;;;;;;;2.28;1.45;;;;;;;21.58;27.64;100185.81;5087052;28;20051;-61
2022/01/20 10:21:31;;;;;;;2.20;1.30;;;;;;;21.58;27.71;100183.03;5090405;28;20044;-61
2022/01/20 10:24:06;;;;;;;2.63;1.40;;;;;;;21.59;27.76;100188.22;5085744;28;20058;-61
2022/01/20 10:26:36;;;;;;;2.40;1.45;;;;;;;21.59;27.44;100191.00;5089205;28;20044;-61
2022/01/20 10:29:09;;;;;;;5.60;1.42;;;;;;;21.59;27.46;100198.56;5088317;28;20669;-59
2022/01/20 10:31:38;;;;;;;3.70;1.20;;;;;;;21.58;27.52;100191.38;5091266;28;20040;-58
2022/01/20 10:34:30;;;;;;;2.78;1.45;;;;;;;21.59;27.55;100190.22;5088464;28;20146;-59
2022/01/20 10:36:59;;;;;;;2.63;1.58;;;;;;;21.60;27.80;100197.38;5086397;28;20056;-59
2022/01/20 10:39:29;;;;;;;2.15;1.52;;;;;;;21.60;27.72;100187.06;5090671;28;20043;-61
2022/01/20 10:42:01;;;;;;;2.42;1.60;;;;;;;21.61;27.83;100187.88;5092206;28;20123;-59
2022/01/20 10:44:27;;;;;;;2.30;1.40;;;;;;;21.62;27.50;100184.72;5085227;28;20127;-60
2022/01/20 10:46:58;;;;;;;2.65;1.60;;;;;;;21.62;27.67;100189.47;5084486;28;20040;-59
2022/01/20 10:49:30;;;;;;;2.28;1.25;;;;;;;21.62;27.97;100189.47;5089280;28;20044;-59
2022/01/20 10:52:04;;;;;;;2.08;1.33;;;;;;;21.64;27.73;100181.56;5090456;28;20051;-60
2022/01/20 10:54:47;;;;;;;2.58;1.50;;;;;;;21.62;27.63;100184.72;5086982;28;20628;-60
2022/01/20 10:57:17;;;;;;;2.28;1.20;;;;;;;21.63;27.61;100182.72;5090683;28;20168;-60
2022/01/20 10:59:50;;;;;;;2.60;1.60;;;;;;;21.62;27.95;100179.16;5088674;28;20039;-60
2022/01/20 11:02:19;;;;;;;2.50;1.55;;;;;;;21.62;27.94;100181.94;5090269;28;20106;-60
2022/01/20 11:04:45;;;;;;;3.20;1.50;;;;;;;21.63;27.70;100177.97;5084507;28;20137;-60
2022/01/20 11:07:11;;;;;;;2.33;1.40;;;;;;;21.63;27.84;100177.97;5087497;28;20981;-59
2022/01/20 11:09:45;;;;;;;2.45;1.40;;;;;;;21.63;27.58;100166.03;5091865;28;20071;-59
2022/01/20 11:12:12;;;;;;;2.42;1.60;;;;;;;21.59;27.88;100159.59;5087480;28;20039;-59
2022/01/20 11:14:38;;;;;;;2.28;1.30;;;;;;;21.57;27.90;100159.13;5084698;28;20527;-59
2022/01/20 11:17:04;;;;;;;2.42;1.48;;;;;;;21.60;28.06;100164.78;5085751;28;20089;-59
2022/01/20 11:19:36;;;;;;;2.05;1.30;;;;;;;21.60;27.98;100152.84;5093621;28;20071;-58
2022/01/20 11:22:08;;;;;;;2.67;1.40;;;;;;;21.61;27.97;100151.69;5089901;28;20508;-59
2022/01/20 11:24:34;;;;;;;2.67;1.30;;;;;;;21.62;27.93;100151.31;5088332;28;20040;-60
2022/01/20 11:27:01;;;;;;;2.83;1.50;;;;;;;21.62;27.85;100151.31;5093640;28;20126;-59
2022/01/20 11:29:50;;;;;;;2.08;1.30;;;;;;;21.61;28.01;100146.09;5089829;28;20032;-59
2022/01/20 11:32:24;;;;;;;5.00;1.25;;;;;;;21.62;27.85;100145.72;5088955;28;20125;-59
2022/01/20 11:34:58;;;;;;;2.45;1.38;;;;;;;21.62;28.02;100142.94;5086637;28;20047;-59
2022/01/20 11:37:26;;;;;;;3.55;1.35;;;;;;;21.63;27.78;100138.19;5085427;28;20048;-59
2022/01/20 11:40:22;;;;;;;3.33;1.40;;;;;;;21.62;27.87;100131.00;5085539;28;20457;-59
2022/01/20 11:43:05;;;;;;;3.47;1.30;;;;;;;21.62;27.87;100131.81;5088694;28;20250;-59
2022/01/20 11:45:36;;;;;;;7.75;1.40;;;;;;;21.61;27.81;100127.41;5083179;28;20063;-59
2022/01/20 11:48:16;;;;;;;2.30;1.40;;;;;;;21.60;28.10;100138.94;5064979;28;20120;-60
2022/01/20 11:50:45;;;;;;;4.50;2.10;;;;;;;21.57;27.96;100132.09;5089913;28;20416;-59
2022/01/20 11:53:21;;;;;;;1.75;1.08;;;;;;;21.54;28.07;100118.91;5086578;28;20089;-59
2022/01/20 11:55:50;;;;;;;3.55;1.60;;;;;;;21.57;28.12;100120.16;5088675;28;20108;-60
2022/01/20 11:58:19;;;;;;;6.57;1.30;;;;;;;21.56;27.96;100118.53;5087636;28;20055;-60
2022/01/20 12:01:00;;;;;;;2.38;1.30;;;;;;;21.54;27.78;100110.56;5087930;28;20105;-60
2022/01/20 12:03:26;;;;;;;2.88;1.35;;;;;;;21.56;27.84;100099.06;5082664;28;20130;-61
2022/01/20 12:06:03;;;;;;;2.17;1.20;;;;;;;21.56;27.92;100096.28;5088866;28;20052;-61
2022/01/20 12:08:30;;;;;;;1.85;1.10;;;;;;;21.56;27.55;100090.69;5085690;28;20051;-61
2022/01/20 12:11:12;;;;;;;2.42;1.30;;;;;;;21.54;27.64;100082.72;5086486;28;20075;-60
2022/01/20 12:13:49;;;;;;;2.22;1.38;;;;;;;21.56;27.58;100076.78;5084328;28;20046;-61
2022/01/20 12:16:23;;;;;;;2.00;1.30;;;;;;;21.55;27.49;100061.25;5089938;28;20059;-61
2022/01/20 12:18:50;;;;;;;3.28;1.52;;;;;;;21.57;27.82;100061.69;5090647;28;20485;-60
2022/01/20 12:21:16;;;;;;;1.73;1.08;;;;;;;21.57;27.56;100061.69;5080345;28;20039;-62
2022/01/20 12:23:43;;;;;;;1.77;1.20;;;;;;;21.58;27.73;100055.78;5078172;28;21277;-61
2022/01/20 12:26:09;;;;;;;1.90;1.40;;;;;;;21.59;27.84;100046.25;5081793;28;20070;-62
2022/01/20 12:28:34;;;;;;;3.67;1.25;;;;;;;21.59;27.54;100046.25;5084791;28;20044;-63
2022/01/20 12:31:01;;;;;;;1.75;1.20;;;;;;;21.58;27.72;100046.63;5082396;28;20058;-63
2022/01/20 12:33:30;;;;;;;4.60;1.40;;;;;;;21.60;27.80;100047.06;5077083;28;20075;-62
2022/01/20 12:36:02;;;;;;;2.60;1.20;;;;;;;21.59;27.67;100034.31;5086731;28;20060;-63
2022/01/20 12:38:31;;;;;;;2.10;1.27;;;;;;;21.59;27.72;100032.34;5086698;28;20040;-62
2022/01/20 12:41:11;;;;;;;1.70;1.10;;;;;;;21.59;28.05;100029.56;5089290;28;20055;-62